sensor_id;sensor_type;location;lat;lon;timestamp;pressure;altitude;pressure_sealevel;temperature;humidity
56400;BME280;42298;53.638;9.876;2023-06-24T00:01:12;102122.09;;;19.17;72.87
56400;BME280;42298;53.638;9.876;2023-06-24T00:03:40;102127.06;;;19.11;73.90
56400;BME280;42298;53.638;9.876;2023-06-24T00:06:06;102125.06;;;19.12;73.37
56400;BME280;42298;53.638;9.876;2023-06-24T00:08:32;102124.59;;;19.10;73.31
56400;BME280;42298;53.638;9.876;2023-06-24T00:10:59;102123.28;;;19.07;73.81
56400;BME280;42298;53.638;9.876;2023-06-24T00:13:24;102121.34;;;18.99;73.47
56400;BME280;42298;53.638;9.876;2023-06-24T00:15:50;102131.38;;;18.91;73.80
56400;BME280;42298;53.638;9.876;2023-06-24T00:18:15;102136.63;;;18.84;73.99
56400;BME280;42298;53.638;9.876;2023-06-24T00:20:41;102135.50;;;18.77;73.93
56400;BME280;42298;53.638;9.876;2023-06-24T00:23:08;102135.50;;;18.77;73.66
56400;BME280;42298;53.638;9.876;2023-06-24T00:25:34;102137.97;;;18.70;73.64
56400;BME280;42298;53.638;9.876;2023-06-24T00:27:59;102133.56;;;18.69;74.16
56400;BME280;42298;53.638;9.876;2023-06-24T00:30:26;102137.81;;;18.66;74.65
56400;BME280;42298;53.638;9.876;2023-06-24T00:32:51;102136.66;;;18.59;73.21
56400;BME280;42298;53.638;9.876;2023-06-24T00:35:17;102140.31;;;18.51;73.18
56400;BME280;42298;53.638;9.876;2023-06-24T00:37:42;102140.97;;;18.48;73.09
56400;BME280;42298;53.638;9.876;2023-06-24T00:40:10;102147.53;;;18.43;74.11
56400;BME280;42298;53.638;9.876;2023-06-24T00:42:37;102152.94;;;18.40;74.34
56400;BME280;42298;53.638;9.876;2023-06-24T00:45:03;102159.47;;;18.35;74.07
56400;BME280;42298;53.638;9.876;2023-06-24T00:47:29;102149.28;;;18.31;73.81
56400;BME280;42298;53.638;9.876;2023-06-24T00:49:56;102156.81;;;18.22;73.08
56400;BME280;42298;53.638;9.876;2023-06-24T00:52:23;102157.00;;;18.17;74.08
56400;BME280;42298;53.638;9.876;2023-06-24T00:54:49;102161.09;;;18.11;73.81
56400;BME280;42298;53.638;9.876;2023-06-24T00:57:14;102153.72;;;18.06;74.32
56400;BME280;42298;53.638;9.876;2023-06-24T00:59:43;102151.25;;;18.05;75.08
56400;BME280;42298;53.638;9.876;2023-06-24T01:02:09;102159.25;;;17.98;75.36
56400;BME280;42298;53.638;9.876;2023-06-24T01:04:35;102151.53;;;17.95;74.11
56400;BME280;42298;53.638;9.876;2023-06-24T01:07:01;102149.25;;;17.88;74.13
56400;BME280;42298;53.638;9.876;2023-06-24T01:09:27;102161.72;;;17.91;74.78
56400;BME280;42298;53.638;9.876;2023-06-24T01:11:53;102153.47;;;17.86;74.25
56400;BME280;42298;53.638;9.876;2023-06-24T01:14:18;102156.28;;;17.86;74.86
56400;BME280;42298;53.638;9.876;2023-06-24T01:17:03;102155.63;;;17.80;74.63
56400;BME280;42298;53.638;9.876;2023-06-24T01:22:37;102161.16;;;17.72;74.88
56400;BME280;42298;53.638;9.876;2023-06-24T01:31:39;102180.16;;;17.61;75.62
56400;BME280;42298;53.638;9.876;2023-06-24T01:36:36;102174.19;;;17.54;74.69
56400;BME280;42298;53.638;9.876;2023-06-24T01:39:04;102175.34;;;17.53;75.13
56400;BME280;42298;53.638;9.876;2023-06-24T01:41:35;102181.44;;;17.55;74.78
56400;BME280;42298;53.638;9.876;2023-06-24T01:44:01;102175.03;;;17.55;73.97
56400;BME280;42298;53.638;9.876;2023-06-24T01:46:29;102171.59;;;17.58;73.77
56400;BME280;42298;53.638;9.876;2023-06-24T01:48:59;102169.47;;;17.55;73.60
56400;BME280;42298;53.638;9.876;2023-06-24T01:51:26;102169.22;;;17.43;72.84
56400;BME280;42298;53.638;9.876;2023-06-24T01:54:01;102168.53;;;17.37;73.73
56400;BME280;42298;53.638;9.876;2023-06-24T01:56:29;102165.56;;;17.34;73.66
56400;BME280;42298;53.638;9.876;2023-06-24T01:58:57;102170.34;;;17.33;74.29
56400;BME280;42298;53.638;9.876;2023-06-24T02:01:24;102169.63;;;17.28;73.70
56400;BME280;42298;53.638;9.876;2023-06-24T02:03:50;102161.13;;;17.24;73.69
56400;BME280;42298;53.638;9.876;2023-06-24T02:06:18;102175.03;;;17.24;73.50
56400;BME280;42298;53.638;9.876;2023-06-24T02:08:45;102173.22;;;17.20;73.66
56400;BME280;42298;53.638;9.876;2023-06-24T02:11:13;102172.81;;;17.12;74.25
56400;BME280;42298;53.638;9.876;2023-06-24T02:13:42;102172.81;;;17.12;74.30
56400;BME280;42298;53.638;9.876;2023-06-24T02:16:08;102167.72;;;17.06;74.19
56400;BME280;42298;53.638;9.876;2023-06-24T02:18:38;102175.56;;;17.04;74.80
56400;BME280;42298;53.638;9.876;2023-06-24T02:21:07;102178.66;;;17.02;74.01
56400;BME280;42298;53.638;9.876;2023-06-24T02:23:35;102173.53;;;16.96;75.55
56400;BME280;42298;53.638;9.876;2023-06-24T02:26:01;102186.66;;;16.95;76.02
56400;BME280;42298;53.638;9.876;2023-06-24T02:28:27;102182.38;;;16.89;76.77
56400;BME280;42298;53.638;9.876;2023-06-24T02:30:54;102185.31;;;16.93;75.44
56400;BME280;42298;53.638;9.876;2023-06-24T02:33:19;102188.41;;;16.91;74.03
56400;BME280;42298;53.638;9.876;2023-06-24T02:35:45;102189.25;;;16.92;73.89
56400;BME280;42298;53.638;9.876;2023-06-24T02:38:11;102201.00;;;16.89;74.76
56400;BME280;42298;53.638;9.876;2023-06-24T02:40:37;102197.53;;;16.83;73.85
56400;BME280;42298;53.638;9.876;2023-06-24T02:43:02;102192.09;;;16.78;74.28
56400;BME280;42298;53.638;9.876;2023-06-24T02:45:28;102205.38;;;16.81;73.69
56400;BME280;42298;53.638;9.876;2023-06-24T02:47:55;102211.78;;;16.82;72.88
56400;BME280;42298;53.638;9.876;2023-06-24T02:50:21;102200.97;;;16.80;73.18
56400;BME280;42298;53.638;9.876;2023-06-24T02:52:47;102198.66;;;16.82;73.10
56400;BME280;42298;53.638;9.876;2023-06-24T02:55:16;102196.50;;;16.79;74.31
56400;BME280;42298;53.638;9.876;2023-06-24T02:57:42;102195.38;;;16.80;73.61
56400;BME280;42298;53.638;9.876;2023-06-24T03:00:07;102195.06;;;16.82;73.76
56400;BME280;42298;53.638;9.876;2023-06-24T03:02:41;102208.69;;;16.83;73.50
56400;BME280;42298;53.638;9.876;2023-06-24T03:05:08;102196.03;;;16.77;74.02
56400;BME280;42298;53.638;9.876;2023-06-24T03:07:34;102206.00;;;16.78;74.44
56400;BME280;42298;53.638;9.876;2023-06-24T03:10:02;102198.16;;;16.80;76.12
56400;BME280;42298;53.638;9.876;2023-06-24T03:12:28;102199.50;;;16.83;75.47
56400;BME280;42298;53.638;9.876;2023-06-24T03:14:53;102190.94;;;16.79;74.83
56400;BME280;42298;53.638;9.876;2023-06-24T03:17:19;102197.53;;;16.83;75.03
56400;BME280;42298;53.638;9.876;2023-06-24T03:19:44;102212.47;;;16.87;76.01
56400;BME280;42298;53.638;9.876;2023-06-24T03:22:09;102199.53;;;16.91;75.96
56400;BME280;42298;53.638;9.876;2023-06-24T03:24:35;102211.97;;;17.07;74.89
56400;BME280;42298;53.638;9.876;2023-06-24T03:27:00;102198.94;;;17.25;75.08
56400;BME280;42298;53.638;9.876;2023-06-24T03:29:25;102208.78;;;17.53;74.84
56400;BME280;42298;53.638;9.876;2023-06-24T03:31:51;102211.50;;;17.75;74.39
56400;BME280;42298;53.638;9.876;2023-06-24T03:34:16;102204.31;;;17.83;72.72
56400;BME280;42298;53.638;9.876;2023-06-24T03:36:44;102210.72;;;17.92;73.51
56400;BME280;42298;53.638;9.876;2023-06-24T03:39:10;102210.72;;;17.92;73.55
56400;BME280;42298;53.638;9.876;2023-06-24T03:41:35;102212.88;;;17.95;73.28
56400;BME280;42298;53.638;9.876;2023-06-24T03:44:01;102208.97;;;17.96;73.55
56400;BME280;42298;53.638;9.876;2023-06-24T03:46:26;102216.38;;;18.17;73.36
56400;BME280;42298;53.638;9.876;2023-06-24T03:48:52;102219.88;;;18.40;73.19
56400;BME280;42298;53.638;9.876;2023-06-24T03:51:17;102217.47;;;18.47;72.76
56400;BME280;42298;53.638;9.876;2023-06-24T03:53:42;102217.59;;;18.50;72.62
56400;BME280;42298;53.638;9.876;2023-06-24T03:56:08;102219.75;;;18.53;72.27
56400;BME280;42298;53.638;9.876;2023-06-24T03:58:33;102221.72;;;18.61;72.73
56400;BME280;42298;53.638;9.876;2023-06-24T04:01:02;102220.06;;;18.77;73.00
56400;BME280;42298;53.638;9.876;2023-06-24T04:03:27;102227.63;;;18.85;72.83
56400;BME280;42298;53.638;9.876;2023-06-24T04:05:55;102229.09;;;18.83;73.64
56400;BME280;42298;53.638;9.876;2023-06-24T04:08:20;102229.59;;;18.85;74.35
56400;BME280;42298;53.638;9.876;2023-06-24T04:10:46;102229.09;;;18.91;74.18
56400;BME280;42298;53.638;9.876;2023-06-24T04:13:11;102226.63;;;18.98;74.59
56400;BME280;42298;53.638;9.876;2023-06-24T04:15:37;102223.66;;;19.12;74.85
56400;BME280;42298;53.638;9.876;2023-06-24T04:18:03;102232.16;;;19.41;74.23
56400;BME280;42298;53.638;9.876;2023-06-24T04:20:29;102225.53;;;19.92;72.71
56400;BME280;42298;53.638;9.876;2023-06-24T04:22:54;102222.47;;;20.43;71.99
56400;BME280;42298;53.638;9.876;2023-06-24T04:25:19;102212.53;;;21.07;69.95
56400;BME280;42298;53.638;9.876;2023-06-24T04:27:46;102223.78;;;21.64;68.66
56400;BME280;42298;53.638;9.876;2023-06-24T04:30:12;102224.88;;;22.19;67.04
56400;BME280;42298;53.638;9.876;2023-06-24T04:32:37;102223.25;;;22.70;65.60
56400;BME280;42298;53.638;9.876;2023-06-24T04:35:03;102211.44;;;23.32;64.12
56400;BME280;42298;53.638;9.876;2023-06-24T04:37:29;102219.16;;;23.97;61.63
56400;BME280;42298;53.638;9.876;2023-06-24T04:39:54;102225.03;;;24.58;60.58
56400;BME280;42298;53.638;9.876;2023-06-24T04:42:20;102219.38;;;25.11;58.83
56400;BME280;42298;53.638;9.876;2023-06-24T04:44:45;102231.97;;;25.59;57.11
56400;BME280;42298;53.638;9.876;2023-06-24T04:47:10;102235.00;;;25.92;55.55
56400;BME280;42298;53.638;9.876;2023-06-24T04:49:39;102234.47;;;26.09;54.50
56400;BME280;42298;53.638;9.876;2023-06-24T04:52:05;102233.78;;;26.42;54.98
56400;BME280;42298;53.638;9.876;2023-06-24T04:54:31;102240.50;;;26.60;52.41
56400;BME280;42298;53.638;9.876;2023-06-24T04:56:56;102251.19;;;26.73;53.74
56400;BME280;42298;53.638;9.876;2023-06-24T04:59:22;102248.06;;;27.11;51.86
56400;BME280;42298;53.638;9.876;2023-06-24T05:01:47;102251.69;;;27.41;49.98
56400;BME280;42298;53.638;9.876;2023-06-24T05:04:13;102243.53;;;27.36;50.36
56400;BME280;42298;53.638;9.876;2023-06-24T05:06:38;102235.97;;;27.47;49.83
56400;BME280;42298;53.638;9.876;2023-06-24T05:09:03;102235.53;;;27.42;50.42
56400;BME280;42298;53.638;9.876;2023-06-24T05:11:30;102226.59;;;27.40;48.44
56400;BME280;42298;53.638;9.876;2023-06-24T05:13:56;102228.09;;;27.30;49.73
56400;BME280;42298;53.638;9.876;2023-06-24T05:16:21;102227.59;;;27.58;49.56
56400;BME280;42298;53.638;9.876;2023-06-24T05:18:47;102245.84;;;27.64;48.46
56400;BME280;42298;53.638;9.876;2023-06-24T05:21:12;102226.66;;;27.10;49.46
56400;BME280;42298;53.638;9.876;2023-06-24T05:23:39;102233.63;;;26.87;49.57
56400;BME280;42298;53.638;9.876;2023-06-24T05:26:04;102237.53;;;27.08;49.85
56400;BME280;42298;53.638;9.876;2023-06-24T05:28:30;102231.38;;;27.32;48.98
56400;BME280;42298;53.638;9.876;2023-06-24T05:30:55;102235.44;;;27.35;47.60
56400;BME280;42298;53.638;9.876;2023-06-24T05:33:21;102231.59;;;27.53;48.31
56400;BME280;42298;53.638;9.876;2023-06-24T05:35:46;102231.03;;;27.81;47.21
56400;BME280;42298;53.638;9.876;2023-06-24T05:38:12;102236.28;;;27.82;46.10
56400;BME280;42298;53.638;9.876;2023-06-24T05:40:37;102218.75;;;27.66;47.92
56400;BME280;42298;53.638;9.876;2023-06-24T05:43:02;102228.31;;;27.92;47.13
56400;BME280;42298;53.638;9.876;2023-06-24T05:45:28;102235.44;;;28.22;46.00
56400;BME280;42298;53.638;9.876;2023-06-24T05:47:53;102233.00;;;28.82;44.10
56400;BME280;42298;53.638;9.876;2023-06-24T05:50:18;102243.31;;;29.28;42.03
56400;BME280;42298;53.638;9.876;2023-06-24T05:52:44;102243.31;;;29.28;43.19
56400;BME280;42298;53.638;9.876;2023-06-24T05:55:09;102241.75;;;29.52;42.71
56400;BME280;42298;53.638;9.876;2023-06-24T05:57:34;102252.38;;;29.83;42.22
56400;BME280;42298;53.638;9.876;2023-06-24T06:00:00;102255.63;;;29.99;42.14
56400;BME280;42298;53.638;9.876;2023-06-24T06:02:25;102254.81;;;30.27;41.17
56400;BME280;42298;53.638;9.876;2023-06-24T06:04:50;102255.19;;;30.53;39.51
56400;BME280;42298;53.638;9.876;2023-06-24T06:07:16;102249.03;;;30.79;39.50
56400;BME280;42298;53.638;9.876;2023-06-24T06:09:41;102271.00;;;30.75;39.47
56400;BME280;42298;53.638;9.876;2023-06-24T06:12:07;102269.81;;;30.59;39.73
56400;BME280;42298;53.638;9.876;2023-06-24T06:14:33;102269.00;;;30.76;39.61
56400;BME280;42298;53.638;9.876;2023-06-24T06:16:58;102268.97;;;30.58;39.77
56400;BME280;42298;53.638;9.876;2023-06-24T06:19:24;102266.16;;;30.55;40.08
56400;BME280;42298;53.638;9.876;2023-06-24T06:21:49;102268.63;;;30.00;40.62
56400;BME280;42298;53.638;9.876;2023-06-24T06:24:14;102263.28;;;29.60;41.16
56400;BME280;42298;53.638;9.876;2023-06-24T06:26:41;102264.44;;;29.34;41.94
56400;BME280;42298;53.638;9.876;2023-06-24T06:29:07;102261.94;;;29.19;41.97
56400;BME280;42298;53.638;9.876;2023-06-24T06:31:32;102274.09;;;29.16;41.79
56400;BME280;42298;53.638;9.876;2023-06-24T06:33:58;102255.41;;;29.04;41.96
56400;BME280;42298;53.638;9.876;2023-06-24T06:36:23;102271.38;;;29.44;41.30
56400;BME280;42298;53.638;9.876;2023-06-24T06:38:48;102253.91;;;29.49;41.72
56400;BME280;42298;53.638;9.876;2023-06-24T06:41:13;102258.84;;;29.80;41.12
56400;BME280;42298;53.638;9.876;2023-06-24T06:43:39;102266.16;;;29.78;41.41
56400;BME280;42298;53.638;9.876;2023-06-24T06:46:04;102270.09;;;29.31;41.50
56400;BME280;42298;53.638;9.876;2023-06-24T06:48:29;102257.78;;;28.99;42.05
56400;BME280;42298;53.638;9.876;2023-06-24T06:50:55;102267.78;;;28.75;42.24
56400;BME280;42298;53.638;9.876;2023-06-24T06:53:20;102272.56;;;28.57;42.25
56400;BME280;42298;53.638;9.876;2023-06-24T06:55:45;102266.31;;;28.99;42.29
56400;BME280;42298;53.638;9.876;2023-06-24T06:58:10;102265.72;;;29.54;40.97
56400;BME280;42298;53.638;9.876;2023-06-24T07:00:36;102262.94;;;29.93;40.78
56400;BME280;42298;53.638;9.876;2023-06-24T07:03:01;102259.69;;;30.16;39.63
56400;BME280;42298;53.638;9.876;2023-06-24T07:05:27;102266.63;;;30.22;39.27
56400;BME280;42298;53.638;9.876;2023-06-24T07:07:52;102261.31;;;30.41;39.29
56400;BME280;42298;53.638;9.876;2023-06-24T07:10:18;102271.31;;;31.05;38.36
56400;BME280;42298;53.638;9.876;2023-06-24T07:12:45;102266.03;;;31.00;38.01
56400;BME280;42298;53.638;9.876;2023-06-24T07:15:10;102266.31;;;31.34;37.62
56400;BME280;42298;53.638;9.876;2023-06-24T07:17:36;102264.97;;;31.56;36.23
56400;BME280;42298;53.638;9.876;2023-06-24T07:20:02;102265.03;;;31.46;36.51
56400;BME280;42298;53.638;9.876;2023-06-24T07:22:27;102269.19;;;31.20;37.18
56400;BME280;42298;53.638;9.876;2023-06-24T07:24:53;102270.19;;;30.71;36.74
56400;BME280;42298;53.638;9.876;2023-06-24T07:27:18;102275.94;;;30.33;37.55
56400;BME280;42298;53.638;9.876;2023-06-24T07:29:43;102280.00;;;30.39;37.62
56400;BME280;42298;53.638;9.876;2023-06-24T07:32:08;102282.38;;;30.82;37.91
56400;BME280;42298;53.638;9.876;2023-06-24T07:34:34;102278.53;;;31.31;35.77
56400;BME280;42298;53.638;9.876;2023-06-24T07:36:59;102281.19;;;31.63;35.53
56400;BME280;42298;53.638;9.876;2023-06-24T07:39:24;102287.69;;;31.63;34.64
56400;BME280;42298;53.638;9.876;2023-06-24T07:41:50;102298.97;;;31.88;34.61
56400;BME280;42298;53.638;9.876;2023-06-24T07:44:15;102280.94;;;32.01;35.05
56400;BME280;42298;53.638;9.876;2023-06-24T07:46:40;102285.59;;;31.71;34.78
56400;BME280;42298;53.638;9.876;2023-06-24T07:49:06;102295.22;;;31.29;36.01
56400;BME280;42298;53.638;9.876;2023-06-24T07:51:31;102281.28;;;31.49;36.39
56400;BME280;42298;53.638;9.876;2023-06-24T07:53:56;102273.72;;;31.86;35.19
56400;BME280;42298;53.638;9.876;2023-06-24T07:56:21;102284.72;;;32.39;33.40
56400;BME280;42298;53.638;9.876;2023-06-24T07:58:47;102276.50;;;31.97;34.12
56400;BME280;42298;53.638;9.876;2023-06-24T08:01:12;102279.13;;;31.70;35.22
56400;BME280;42298;53.638;9.876;2023-06-24T08:03:37;102276.78;;;31.55;35.17
56400;BME280;42298;53.638;9.876;2023-06-24T08:06:03;102277.19;;;31.50;35.81
56400;BME280;42298;53.638;9.876;2023-06-24T08:08:28;102271.44;;;31.60;35.60
56400;BME280;42298;53.638;9.876;2023-06-24T08:10:54;102273.50;;;31.60;35.91
56400;BME280;42298;53.638;9.876;2023-06-24T08:13:19;102277.31;;;31.32;35.21
56400;BME280;42298;53.638;9.876;2023-06-24T08:15:45;102256.97;;;31.23;36.17
56400;BME280;42298;53.638;9.876;2023-06-24T08:18:10;102273.13;;;31.51;35.51
56400;BME280;42298;53.638;9.876;2023-06-24T08:20:37;102276.81;;;31.48;35.25
56400;BME280;42298;53.638;9.876;2023-06-24T08:23:02;102276.78;;;31.51;35.20
56400;BME280;42298;53.638;9.876;2023-06-24T08:25:28;102265.09;;;31.35;35.36
56400;BME280;42298;53.638;9.876;2023-06-24T08:28:05;102267.09;;;31.42;36.43
56400;BME280;42298;53.638;9.876;2023-06-24T08:30:30;102259.38;;;31.39;36.33
56400;BME280;42298;53.638;9.876;2023-06-24T08:32:55;102265.00;;;31.49;36.59
56400;BME280;42298;53.638;9.876;2023-06-24T08:35:21;102268.28;;;31.48;36.01
56400;BME280;42298;53.638;9.876;2023-06-24T08:37:46;102269.13;;;31.38;34.73
56400;BME280;42298;53.638;9.876;2023-06-24T08:40:11;102273.66;;;31.21;35.32
56400;BME280;42298;53.638;9.876;2023-06-24T08:42:37;102265.09;;;31.31;35.53
56400;BME280;42298;53.638;9.876;2023-06-24T08:45:03;102269.34;;;31.71;35.32
56400;BME280;42298;53.638;9.876;2023-06-24T08:47:28;102267.09;;;32.00;35.32
56400;BME280;42298;53.638;9.876;2023-06-24T08:50:06;102266.59;;;32.12;35.08
56400;BME280;42298;53.638;9.876;2023-06-24T08:52:35;102271.28;;;32.36;34.49
56400;BME280;42298;53.638;9.876;2023-06-24T08:55:02;102274.38;;;32.52;33.61
56400;BME280;42298;53.638;9.876;2023-06-24T08:57:29;102267.97;;;32.78;33.57
56400;BME280;42298;53.638;9.876;2023-06-24T08:59:55;102279.25;;;32.92;32.42
56400;BME280;42298;53.638;9.876;2023-06-24T09:02:20;102284.84;;;32.99;32.74
56400;BME280;42298;53.638;9.876;2023-06-24T09:04:46;102272.28;;;32.93;32.57
56400;BME280;42298;53.638;9.876;2023-06-24T09:07:11;102273.09;;;32.93;33.10
56400;BME280;42298;53.638;9.876;2023-06-24T09:09:44;102276.16;;;33.09;31.93
56400;BME280;42298;53.638;9.876;2023-06-24T09:12:14;102274.03;;;33.17;31.91
56400;BME280;42298;53.638;9.876;2023-06-24T09:14:40;102282.38;;;33.04;32.90
56400;BME280;42298;53.638;9.876;2023-06-24T09:17:06;102280.91;;;32.89;32.44
56400;BME280;42298;53.638;9.876;2023-06-24T09:19:34;102273.75;;;32.71;32.72
56400;BME280;42298;53.638;9.876;2023-06-24T09:22:03;102279.47;;;32.71;33.00
56400;BME280;42298;53.638;9.876;2023-06-24T09:24:33;102294.78;;;32.87;32.87
56400;BME280;42298;53.638;9.876;2023-06-24T09:26:59;102279.09;;;33.06;32.43
56400;BME280;42298;53.638;9.876;2023-06-24T09:29:29;102271.22;;;33.14;31.75
56400;BME280;42298;53.638;9.876;2023-06-24T09:31:56;102270.13;;;33.04;32.81
56400;BME280;42298;53.638;9.876;2023-06-24T09:34:23;102275.56;;;32.91;32.32
56400;BME280;42298;53.638;9.876;2023-06-24T09:36:53;102270.44;;;33.09;31.91
56400;BME280;42298;53.638;9.876;2023-06-24T09:39:20;102264.88;;;33.29;32.21
56400;BME280;42298;53.638;9.876;2023-06-24T09:41:50;102254.59;;;33.35;32.11
56400;BME280;42298;53.638;9.876;2023-06-24T09:44:16;102251.72;;;33.39;31.74
56400;BME280;42298;53.638;9.876;2023-06-24T09:46:44;102245.75;;;32.96;32.95
56400;BME280;42298;53.638;9.876;2023-06-24T09:49:09;102246.28;;;32.47;32.89
56400;BME280;42298;53.638;9.876;2023-06-24T09:51:40;102252.84;;;32.44;33.11
56400;BME280;42298;53.638;9.876;2023-06-24T09:54:10;102251.31;;;32.36;32.35
56400;BME280;42298;53.638;9.876;2023-06-24T09:56:37;102230.16;;;32.30;33.13
56400;BME280;42298;53.638;9.876;2023-06-24T09:59:06;102240.53;;;32.54;33.15
56400;BME280;42298;53.638;9.876;2023-06-24T10:01:35;102249.16;;;32.84;32.63
56400;BME280;42298;53.638;9.876;2023-06-24T10:04:02;102234.53;;;32.78;33.19
56400;BME280;42298;53.638;9.876;2023-06-24T10:06:28;102235.09;;;33.00;33.57
56400;BME280;42298;53.638;9.876;2023-06-24T10:08:55;102232.25;;;33.00;32.94
56400;BME280;42298;53.638;9.876;2023-06-24T10:11:22;102226.19;;;32.61;33.20
56400;BME280;42298;53.638;9.876;2023-06-24T10:13:47;102229.66;;;32.75;32.79
56400;BME280;42298;53.638;9.876;2023-06-24T10:16:13;102226.72;;;32.86;33.22
56400;BME280;42298;53.638;9.876;2023-06-24T10:18:40;102233.38;;;33.06;33.30
56400;BME280;42298;53.638;9.876;2023-06-24T10:21:08;102230.81;;;33.15;32.83
56400;BME280;42298;53.638;9.876;2023-06-24T10:23:39;102227.28;;;33.34;32.21
56400;BME280;42298;53.638;9.876;2023-06-24T10:36:55;102217.31;;;32.85;33.65
56400;BME280;42298;53.638;9.876;2023-06-24T10:39:49;102208.47;;;32.76;32.62
56400;BME280;42298;53.638;9.876;2023-06-24T10:42:38;102216.38;;;32.62;34.04
56400;BME280;42298;53.638;9.876;2023-06-24T10:47:36;102208.22;;;32.64;33.58
56400;BME280;42298;53.638;9.876;2023-06-24T10:50:03;102197.75;;;32.87;33.60
56400;BME280;42298;53.638;9.876;2023-06-24T10:52:28;102201.41;;;32.88;33.44
56400;BME280;42298;53.638;9.876;2023-06-24T10:54:56;102201.78;;;32.90;34.20
56400;BME280;42298;53.638;9.876;2023-06-24T10:57:24;102200.69;;;33.11;33.24
56400;BME280;42298;53.638;9.876;2023-06-24T10:59:51;102199.75;;;33.17;33.48
56400;BME280;42298;53.638;9.876;2023-06-24T11:02:21;102201.84;;;33.17;34.12
56400;BME280;42298;53.638;9.876;2023-06-24T11:04:51;102189.53;;;33.20;32.78
56400;BME280;42298;53.638;9.876;2023-06-24T11:07:18;102176.78;;;32.67;33.24
56400;BME280;42298;53.638;9.876;2023-06-24T11:12:15;102183.41;;;32.57;33.16
56400;BME280;42298;53.638;9.876;2023-06-24T11:14:41;102173.56;;;32.25;34.30
56400;BME280;42298;53.638;9.876;2023-06-24T11:17:06;102172.38;;;32.22;34.91
56400;BME280;42298;53.638;9.876;2023-06-24T11:19:32;102178.09;;;32.59;35.24
56400;BME280;42298;53.638;9.876;2023-06-24T11:22:01;102183.72;;;33.00;34.45
56400;BME280;42298;53.638;9.876;2023-06-24T11:24:29;102186.44;;;33.07;33.81
56400;BME280;42298;53.638;9.876;2023-06-24T11:26:55;102184.69;;;33.17;34.01
56400;BME280;42298;53.638;9.876;2023-06-24T11:29:24;102176.44;;;33.22;34.01
56400;BME280;42298;53.638;9.876;2023-06-24T11:31:53;102180.31;;;33.35;33.65
56400;BME280;42298;53.638;9.876;2023-06-24T11:34:18;102167.31;;;33.31;33.19
56400;BME280;42298;53.638;9.876;2023-06-24T11:36:44;102178.34;;;33.02;34.34
56400;BME280;42298;53.638;9.876;2023-06-24T11:39:20;102180.28;;;32.78;34.35
56400;BME280;42298;53.638;9.876;2023-06-24T11:41:45;102160.69;;;32.50;34.50
56400;BME280;42298;53.638;9.876;2023-06-24T11:44:11;102167.13;;;32.21;35.65
56400;BME280;42298;53.638;9.876;2023-06-24T11:46:37;102167.34;;;31.96;36.02
56400;BME280;42298;53.638;9.876;2023-06-24T11:49:06;102164.47;;;32.00;36.23
56400;BME280;42298;53.638;9.876;2023-06-24T11:51:32;102164.47;;;32.00;36.33
56400;BME280;42298;53.638;9.876;2023-06-24T11:54:02;102167.00;;;31.91;36.45
56400;BME280;42298;53.638;9.876;2023-06-24T11:56:38;102162.09;;;31.91;36.30
56400;BME280;42298;53.638;9.876;2023-06-24T11:59:17;102161.31;;;31.91;36.79
56400;BME280;42298;53.638;9.876;2023-06-24T12:01:43;102162.19;;;31.81;36.35
56400;BME280;42298;53.638;9.876;2023-06-24T12:04:15;102163.50;;;31.69;37.21
56400;BME280;42298;53.638;9.876;2023-06-24T12:06:41;102149.41;;;31.55;36.46
56400;BME280;42298;53.638;9.876;2023-06-24T12:09:08;102155.09;;;31.52;36.76
56400;BME280;42298;53.638;9.876;2023-06-24T12:11:33;102144.63;;;31.42;37.09
56400;BME280;42298;53.638;9.876;2023-06-24T12:13:58;102147.00;;;31.50;38.58
56400;BME280;42298;53.638;9.876;2023-06-24T12:16:24;102141.19;;;31.61;37.38
56400;BME280;42298;53.638;9.876;2023-06-24T12:18:51;102145.50;;;31.83;37.02
56400;BME280;42298;53.638;9.876;2023-06-24T12:21:17;102154.91;;;31.76;35.87
56400;BME280;42298;53.638;9.876;2023-06-24T12:23:42;102133.69;;;31.81;36.23
56400;BME280;42298;53.638;9.876;2023-06-24T12:26:07;102140.41;;;32.04;35.70
56400;BME280;42298;53.638;9.876;2023-06-24T12:28:33;102134.59;;;32.15;35.56
56400;BME280;42298;53.638;9.876;2023-06-24T12:30:58;102152.00;;;32.24;35.58
56400;BME280;42298;53.638;9.876;2023-06-24T12:33:23;102147.38;;;32.40;35.62
56400;BME280;42298;53.638;9.876;2023-06-24T12:35:49;102130.13;;;32.51;35.68
56400;BME280;42298;53.638;9.876;2023-06-24T12:38:14;102135.44;;;32.12;36.38
56400;BME280;42298;53.638;9.876;2023-06-24T12:40:41;102142.22;;;32.25;35.50
56400;BME280;42298;53.638;9.876;2023-06-24T12:43:06;102147.81;;;32.32;35.23
56400;BME280;42298;53.638;9.876;2023-06-24T12:45:32;102137.66;;;32.31;35.03
56400;BME280;42298;53.638;9.876;2023-06-24T12:47:57;102138.50;;;31.91;35.76
56400;BME280;42298;53.638;9.876;2023-06-24T12:50:22;102142.38;;;31.08;36.54
56400;BME280;42298;53.638;9.876;2023-06-24T12:52:48;102127.88;;;30.85;37.01
56400;BME280;42298;53.638;9.876;2023-06-24T12:55:13;102131.09;;;30.91;38.37
56400;BME280;42298;53.638;9.876;2023-06-24T12:57:38;102141.97;;;31.06;37.46
56400;BME280;42298;53.638;9.876;2023-06-24T13:00:04;102137.06;;;31.10;37.21
56400;BME280;42298;53.638;9.876;2023-06-24T13:02:30;102125.38;;;30.98;37.93
56400;BME280;42298;53.638;9.876;2023-06-24T13:04:55;102129.69;;;31.16;37.62
56400;BME280;42298;53.638;9.876;2023-06-24T13:07:21;102122.03;;;31.10;37.80
56400;BME280;42298;53.638;9.876;2023-06-24T13:09:46;102116.63;;;31.26;36.87
56400;BME280;42298;53.638;9.876;2023-06-24T13:12:11;102121.03;;;31.38;35.96
56400;BME280;42298;53.638;9.876;2023-06-24T13:14:37;102120.09;;;31.55;37.26